createdAt,value
2019-06-07T00:01:32.898Z,94952.77
2019-06-07T00:04:03.325Z,94964.66
2019-06-07T00:06:34.118Z,94967.81
2019-06-07T00:09:08.138Z,94964.93
2019-06-07T00:11:37.202Z,94971.52
2019-06-07T00:14:08.626Z,94964.66
2019-06-07T00:16:39.453Z,94962.80
2019-06-07T00:19:11.967Z,94962.80
2019-06-07T00:22:13.578Z,94952.53
2019-06-07T00:24:16.228Z,94953.84
2019-06-07T00:26:57.619Z,94958.86
2019-06-07T00:29:21.763Z,94964.94
2019-06-07T00:31:51.168Z,94965.45
2019-06-07T00:34:22.926Z,94964.11
2019-06-07T00:36:54.513Z,94962.23
2019-06-07T00:39:26.135Z,94955.38
2019-06-07T00:41:56.945Z,94955.98
2019-06-07T00:44:27.456Z,94962.81
2019-06-07T00:46:57.773Z,94953.81
2019-06-07T00:49:40.390Z,94955.91
2019-06-07T00:52:01.419Z,94962.05
2019-06-07T00:54:32.092Z,94707.27
2019-06-07T00:57:02.402Z,94949.58
2019-06-07T00:59:32.710Z,94948.22
2019-06-07T01:02:03.530Z,94954.23
2019-06-07T01:04:35.546Z,94953.77
2019-06-07T01:07:06.183Z,94961.44
2019-06-07T01:09:37.944Z,94954.62
2019-06-07T01:12:08.381Z,94955.87
2019-06-07T01:14:38.789Z,94959.39
2019-06-07T01:17:39.220Z,94959.05
2019-06-07T01:19:58.065Z,94962.54
2019-06-07T01:22:29.701Z,94958.59
2019-06-07T01:25:00.009Z,94958.02
2019-06-07T01:27:30.324Z,94954.66
2019-06-07T01:30:01.072Z,94954.66
2019-06-07T01:32:33.177Z,94949.67
2019-06-07T01:35:03.478Z,94949.93
2019-06-07T01:37:35.274Z,94953.61
2019-06-07T01:40:06.528Z,94954.55
2019-06-07T01:42:36.818Z,94951.98
2019-06-07T01:45:08.058Z,94960.65
2019-06-07T01:47:38.714Z,94955.91
2019-06-07T01:50:09.765Z,94961.19
2019-06-07T01:52:40.184Z,94959.65
2019-06-07T01:55:10.846Z,94964.34
2019-06-07T01:57:47.958Z,94961.17
2019-06-07T02:00:15.623Z,94962.50
2019-06-07T02:02:45.911Z,94957.21
2019-06-07T02:05:19.144Z,94960.09
2019-06-07T02:07:48.850Z,94960.11
2019-06-07T02:10:22.320Z,94966.66
2019-06-07T02:12:51.728Z,94968.05
2019-06-07T02:15:25.044Z,94971.50
2019-06-07T02:17:54.437Z,94975.70
2019-06-07T02:20:27.235Z,94966.50
2019-06-07T02:22:57.138Z,94970.42
2019-06-07T02:25:41.949Z,94975.95
2019-06-07T02:28:25.942Z,94974.11
2019-06-07T02:30:47.555Z,94974.03
2019-06-07T02:33:04.124Z,94980.89
2019-06-07T02:35:40.360Z,94976.09
2019-06-07T02:38:06.894Z,94983.22
2019-06-07T02:40:37.712Z,94986.34
2019-06-07T02:43:08.441Z,94988.73
2019-06-07T02:45:43.455Z,94978.77
2019-06-07T02:48:10.949Z,94989.30
2019-06-07T02:50:42.045Z,94992.20
2019-06-07T02:53:12.554Z,94994.55
2019-06-07T02:56:32.845Z,95007.67
2019-06-07T02:58:15.222Z,95004.27
2019-06-07T03:01:07.063Z,95012.66
2019-06-07T03:03:22.357Z,95016.16
2019-06-07T03:05:52.624Z,95020.25
2019-06-07T03:08:22.944Z,95023.36
2019-06-07T03:10:53.531Z,95026.83
2019-06-07T03:13:24.200Z,95024.70
2019-06-07T03:15:56.449Z,95031.94
2019-06-07T03:18:45.117Z,95032.66
2019-06-07T03:21:19.637Z,95040.20
2019-06-07T03:23:51.471Z,95046.68
2019-06-07T03:26:23.953Z,95046.53
2019-06-07T03:28:55.897Z,95052.08
2019-06-07T03:31:28.509Z,95059.77
2019-06-07T03:33:59.131Z,95068.11
2019-06-07T03:36:29.692Z,95060.34
2019-06-07T03:39:01.281Z,95062.20
2019-06-07T03:41:42.007Z,95062.53
2019-06-07T03:44:05.047Z,95068.63
2019-06-07T03:46:39.033Z,95068.94
2019-06-07T03:49:09.257Z,95063.19
2019-06-07T03:51:40.937Z,95059.30
2019-06-07T03:54:11.699Z,95060.34
2019-06-07T03:56:42.353Z,95064.09
2019-06-07T03:59:12.638Z,95059.61
2019-06-07T04:01:42.944Z,95054.89
2019-06-07T04:04:14.102Z,95058.87
2019-06-07T04:06:44.379Z,95057.55
2019-06-07T04:09:14.665Z,95057.82
2019-06-07T04:11:45.377Z,95066.27
2019-06-07T04:14:15.932Z,95070.73
2019-06-07T04:16:46.321Z,95071.27
2019-06-07T04:19:16.972Z,95071.27
2019-06-07T04:21:47.667Z,95077.07
2019-06-07T04:24:17.964Z,95074.70
2019-06-07T04:26:48.574Z,95074.70
2019-06-07T04:29:59.992Z,95073.09
2019-06-07T04:31:52.124Z,95073.09
2019-06-07T04:34:22.561Z,95079.93
2019-06-07T04:36:59.206Z,95080.41
2019-06-07T04:39:26.619Z,95088.55
2019-06-07T04:41:57.647Z,95094.59
2019-06-07T04:44:28.883Z,95098.52
2019-06-07T04:47:02.468Z,95098.52
2019-06-07T04:49:38.106Z,95092.67
2019-06-07T04:52:06.841Z,95097.84
2019-06-07T04:54:38.546Z,95097.84
2019-06-07T04:57:09.703Z,95101.75
2019-06-07T05:00:10.996Z,95101.75
2019-06-07T05:02:12.028Z,95100.86
2019-06-07T05:04:44.017Z,95102.34
2019-06-07T05:07:14.428Z,95106.53
2019-06-07T05:09:44.802Z,95117.42
2019-06-07T05:12:15.148Z,95106.45
2019-06-07T05:14:45.532Z,95116.52
2019-06-07T05:17:16.270Z,95119.20
2019-06-07T05:19:46.688Z,95119.38
2019-06-07T05:22:16.282Z,95121.45
2019-06-07T05:24:47.084Z,95123.16
2019-06-07T05:27:17.351Z,95129.11
2019-06-07T05:30:08.715Z,95128.99
2019-06-07T05:32:20.521Z,95133.30
2019-06-07T05:34:50.873Z,95134.52
2019-06-07T05:37:21.223Z,95129.53
2019-06-07T05:39:51.856Z,95133.44
2019-06-07T05:42:22.158Z,95131.81
2019-06-07T05:44:52.861Z,95125.82
2019-06-07T05:47:23.147Z,95125.98
2019-06-07T05:49:53.801Z,95128.83
2019-06-07T05:52:24.564Z,95126.49
2019-06-07T05:54:54.918Z,95128.08
2019-06-07T05:57:25.194Z,95126.14
2019-06-07T05:59:55.868Z,95131.23
2019-06-07T06:02:26.362Z,95127.48
2019-06-07T06:04:56.796Z,95130.92
2019-06-07T06:07:27.100Z,95131.37
2019-06-07T06:09:57.738Z,95133.68
2019-06-07T06:12:35.538Z,95135.88
2019-06-07T06:15:00.274Z,95139.13
2019-06-07T06:17:30.677Z,95136.03
2019-06-07T06:20:01.381Z,95140.47
2019-06-07T06:22:33.157Z,95139.83
2019-06-07T06:30:10.205Z,95130.70
2019-06-07T06:32:47.203Z,95123.75
2019-06-07T06:35:12.699Z,95122.70
2019-06-07T06:37:47.173Z,95122.06
2019-06-07T06:40:16.654Z,95117.15
2019-06-07T06:42:50.077Z,95119.01
2019-06-07T06:45:21.107Z,95108.38
2019-06-07T06:47:51.785Z,95118.86
2019-06-07T06:50:22.670Z,95114.55
2019-06-07T06:52:54.633Z,95113.20
2019-06-07T06:55:25.171Z,95108.03
2019-06-07T06:57:56.060Z,95103.38
2019-06-07T07:01:05.892Z,95105.47
2019-06-07T07:06:24.207Z,95113.93
2019-06-07T07:08:31.552Z,95111.08
2019-06-07T07:11:01.835Z,95115.30
2019-06-07T07:13:32.573Z,95108.23
2019-06-07T07:16:03.066Z,95108.74
2019-06-07T07:18:33.808Z,95113.30
2019-06-07T07:21:04.093Z,95114.38
2019-06-07T07:23:34.378Z,95110.15
2019-06-07T07:26:04.749Z,95109.61
2019-06-07T07:28:35.067Z,95105.27
2019-06-07T07:31:05.351Z,95111.62
2019-06-07T07:36:23.201Z,95112.81
2019-06-07T07:38:39.790Z,95115.73
2019-06-07T07:41:15.591Z,95114.63
2019-06-07T07:43:42.090Z,95115.78
2019-06-07T07:46:29.613Z,95114.11
2019-06-07T07:48:45.943Z,95108.78
2019-06-07T07:51:16.343Z,95116.70
2019-06-07T07:53:53.183Z,95115.93
2019-06-07T07:56:18.800Z,95118.52
2019-06-07T07:58:51.175Z,95118.14
2019-06-07T08:01:21.169Z,95124.97
2019-06-07T08:03:55.844Z,95122.98
2019-06-07T08:06:23.446Z,95119.59
2019-06-07T08:08:56.681Z,95122.65
2019-06-07T08:11:25.772Z,95123.13
2019-06-07T08:13:57.631Z,95124.23
2019-06-07T08:16:28.212Z,95121.11
2019-06-07T08:19:04.034Z,95129.42
2019-06-07T08:21:30.678Z,95136.50
2019-06-07T08:24:04.651Z,95136.53
2019-06-07T08:26:32.949Z,95135.99
2019-06-07T08:29:03.533Z,95143.05
2019-06-07T08:31:33.858Z,95144.53
2019-06-07T08:34:04.372Z,95142.25
2019-06-07T08:36:41.764Z,95139.72
2019-06-07T08:39:08.643Z,95136.37
2019-06-07T08:41:53.508Z,95146.37
2019-06-07T08:44:23.363Z,95146.25
2019-06-07T08:46:43.312Z,95141.81
2019-06-07T08:49:14.867Z,95142.47
2019-06-07T08:51:45.155Z,95137.27
2019-06-07T08:54:22.721Z,95135.03
2019-06-07T08:56:47.467Z,95129.56
2019-06-07T08:59:17.828Z,95133.46
2019-06-07T09:01:48.124Z,95136.92
2019-06-07T09:04:18.684Z,95140.45
2019-06-07T09:07:18.448Z,95141.09
2019-06-07T09:09:21.397Z,95135.48
2019-06-07T09:11:52.452Z,95130.23
2019-06-07T09:14:23.729Z,95123.44
2019-06-07T09:16:58.797Z,95127.19
2019-06-07T09:19:26.129Z,95120.34
2019-06-07T09:21:57.563Z,95120.50
2019-06-07T09:24:28.612Z,95123.55
2019-06-07T09:27:02.376Z,95119.62
2019-06-07T09:29:31.437Z,95119.48
2019-06-07T09:32:05.879Z,95115.10
2019-06-07T09:34:33.897Z,95118.14
2019-06-07T09:37:54.787Z,95119.86
2019-06-07T09:39:38.387Z,95113.24
2019-06-07T09:42:12.247Z,95120.30
2019-06-07T09:44:40.875Z,95114.70
2019-06-07T09:47:29.862Z,95110.68
2019-06-07T09:49:43.225Z,95112.86
2019-06-07T09:52:13.531Z,95113.53
2019-06-07T09:55:06.108Z,95106.45
2019-06-07T09:57:17.501Z,95108.55
2019-06-07T09:59:51.277Z,95112.91
2019-06-07T10:02:21.736Z,95111.06
2019-06-07T10:04:52.031Z,95104.22
2019-06-07T10:07:31.368Z,95108.25
2019-06-07T10:10:15.802Z,95102.85
2019-06-07T10:12:26.836Z,95107.47
2019-06-07T10:14:58.601Z,95107.97
2019-06-07T10:17:28.980Z,95099.67
2019-06-07T10:20:00.465Z,95101.16
2019-06-07T10:22:31.336Z,95097.59
2019-06-07T10:25:02.020Z,95094.42
2019-06-07T10:27:32.694Z,95104.84
2019-06-07T10:30:04.060Z,95095.09
2019-06-07T10:32:34.487Z,95102.71
2019-06-07T10:35:05.523Z,95091.10
2019-06-07T10:37:36.990Z,95099.24
2019-06-07T10:40:09.103Z,95105.72
2019-06-07T10:42:39.631Z,95096.75
2019-06-07T10:45:11.983Z,95090.45
2019-06-07T10:47:42.371Z,95087.17
2019-06-07T10:50:13.158Z,95081.11
2019-06-07T10:52:43.553Z,95085.70
2019-06-07T10:55:14.155Z,95086.13
2019-06-07T10:57:44.487Z,95080.48
2019-06-07T11:00:16.845Z,95083.80
2019-06-07T11:02:47.142Z,95079.42
2019-06-07T11:05:17.895Z,95081.50
2019-06-07T11:07:48.159Z,95079.50
2019-06-07T11:10:20.195Z,95076.01
2019-06-07T11:12:50.509Z,95073.93
2019-06-07T11:15:20.994Z,95077.14
2019-06-07T11:17:51.387Z,95073.73
2019-06-07T11:20:22.795Z,95077.60
2019-06-07T11:22:53.254Z,95081.71
2019-06-07T11:25:23.653Z,95070.11
2019-06-07T11:27:53.964Z,95071.25
2019-06-07T11:30:24.275Z,95069.66
2019-06-07T11:32:54.584Z,95059.80
2019-06-07T11:35:25.220Z,95060.45
2019-06-07T11:37:55.700Z,95063.73
2019-06-07T11:40:34.894Z,95059.16
2019-06-07T11:42:58.567Z,95055.27
2019-06-07T11:45:33.936Z,95045.78
2019-06-07T11:48:04.554Z,95055.69
2019-06-07T11:50:34.821Z,95056.14
2019-06-07T11:53:06.566Z,95048.68
2019-06-07T11:55:37.257Z,95051.57
2019-06-07T11:58:11.685Z,95040.70
2019-06-07T12:00:39.889Z,95040.50
2019-06-07T12:03:11.570Z,95041.14
2019-06-07T12:05:42.300Z,95032.96
2019-06-07T12:08:13.999Z,95033.56
2019-06-07T12:10:44.420Z,95027.48
2019-06-07T12:13:15.501Z,95025.94
2019-06-07T12:15:49.141Z,95019.94
2019-06-07T12:18:19.769Z,95019.81
2019-06-07T12:20:50.157Z,95010.49
2019-06-07T12:23:20.786Z,95009.97
2019-06-07T12:25:51.186Z,95011.54
2019-06-07T12:28:21.446Z,95005.61
2019-06-07T12:30:55.090Z,95000.99
2019-06-07T12:33:24.215Z,94998.84
2019-06-07T12:35:54.825Z,94993.76
2019-06-07T12:38:25.352Z,94999.61
2019-06-07T12:40:57.907Z,94996.38
2019-06-07T12:43:28.438Z,95001.11
2019-06-07T12:45:58.916Z,94996.75
2019-06-07T12:48:29.584Z,94994.66
2019-06-07T12:50:59.893Z,94994.37
2019-06-07T12:53:30.168Z,94989.73
2019-06-07T12:56:00.948Z,94995.42
2019-06-07T12:58:36.265Z,94984.20
2019-06-07T13:01:04.243Z,94989.23
2019-06-07T13:03:35.039Z,94991.16
2019-06-07T13:06:05.706Z,94983.88
2019-06-07T13:08:36.005Z,94981.36
2019-06-07T13:11:16.175Z,94981.44
2019-06-07T13:13:38.795Z,94978.30
2019-06-07T13:16:09.591Z,94977.83
2019-06-07T13:18:40.007Z,94974.70
2019-06-07T13:21:10.275Z,94974.86
2019-06-07T13:23:44.263Z,94970.99
2019-06-07T13:26:13.149Z,94969.50
2019-06-07T13:28:43.413Z,94960.67
2019-06-07T13:31:14.094Z,94964.80
2019-06-07T13:33:44.924Z,94963.41
2019-06-07T13:36:16.169Z,94959.76
2019-06-07T13:38:46.563Z,94952.30
2019-06-07T13:41:30.214Z,94944.52
2019-06-07T13:43:51.587Z,94951.67
2019-06-07T13:46:23.021Z,94960.64
2019-06-07T13:48:53.599Z,94952.38
2019-06-07T13:51:25.150Z,94952.63
2019-06-07T13:53:56.455Z,94954.19
2019-06-07T13:56:28.247Z,94953.11
2019-06-07T13:58:58.699Z,94945.38
2019-06-07T14:01:30.466Z,94952.77
2019-06-07T14:04:00.765Z,94953.72
2019-06-07T14:06:32.201Z,94949.19
2019-06-07T14:09:02.881Z,94951.08
2019-06-07T14:11:49.589Z,94945.29
2019-06-07T14:14:06.571Z,94946.56
2019-06-07T14:16:37.332Z,94947.59
2019-06-07T14:19:08.784Z,94945.89
2019-06-07T14:21:39.447Z,94942.31
2019-06-07T14:24:09.712Z,94938.16
2019-06-07T14:26:42.957Z,94941.27
2019-06-07T14:29:13.527Z,94937.98
2019-06-07T14:31:43.838Z,94943.27
2019-06-07T14:34:14.128Z,94945.15
2019-06-07T14:36:45.002Z,94937.64
2019-06-07T14:39:15.673Z,94939.01
2019-06-07T14:41:46.184Z,94937.75
2019-06-07T14:44:16.776Z,94933.36
2019-06-07T14:46:47.535Z,94928.94
2019-06-07T14:49:17.887Z,94939.04
2019-06-07T14:51:48.219Z,94944.00
2019-06-07T14:54:18.492Z,94937.80
2019-06-07T14:56:49.170Z,94939.87
2019-06-07T14:59:19.585Z,94933.18
2019-06-07T15:01:49.948Z,94946.98
2019-06-07T15:04:20.650Z,94938.97
2019-06-07T15:06:51.358Z,94944.53
2019-06-07T15:09:21.619Z,94941.14
2019-06-07T15:11:52.037Z,94948.98
2019-06-07T15:14:22.388Z,94951.77
2019-06-07T15:16:52.901Z,94958.45
2019-06-07T15:19:24.249Z,94953.73
2019-06-07T15:21:54.861Z,94951.82
2019-06-07T15:24:25.536Z,94957.67
2019-06-07T15:26:56.389Z,94960.01
2019-06-07T15:29:27.484Z,94957.02
2019-06-07T15:31:58.232Z,94954.79
2019-06-07T15:34:30.429Z,94951.47
2019-06-07T15:37:01.005Z,94946.52
2019-06-07T15:39:32.577Z,94771.91
2019-06-07T15:42:03.237Z,94952.16
2019-06-07T15:44:33.665Z,94953.84
2019-06-07T15:47:04.011Z,94942.11
2019-06-07T15:49:36.070Z,94945.77
2019-06-07T15:52:06.467Z,94950.03
2019-06-07T15:54:37.112Z,94957.13
2019-06-07T15:57:07.402Z,94957.76
2019-06-07T15:59:37.760Z,94958.87
2019-06-07T16:02:08.521Z,94959.52
2019-06-07T16:04:39.765Z,94950.64
2019-06-07T16:07:10.109Z,94958.86
2019-06-07T16:09:40.765Z,94956.02
2019-06-07T16:12:11.166Z,94958.39
2019-06-07T16:14:41.482Z,94946.73
2019-06-07T16:17:12.080Z,94948.10
2019-06-07T16:19:45.998Z,94952.95
2019-06-07T16:22:14.666Z,94957.78
2019-06-07T16:24:46.330Z,94948.46
2019-06-07T16:27:16.600Z,94959.38
2019-06-07T16:29:47.007Z,94965.05
2019-06-07T16:32:17.298Z,94963.58
2019-06-07T16:34:47.603Z,94960.88
2019-06-07T16:37:18.317Z,94969.56
2019-06-07T16:39:48.821Z,94969.54
2019-06-07T16:42:19.083Z,94975.77
2019-06-07T16:44:49.816Z,94972.02
2019-06-07T16:47:20.586Z,94972.41
2019-06-07T16:49:50.952Z,94979.16
2019-06-07T16:52:21.685Z,94974.65
2019-06-07T16:54:52.246Z,94985.05
2019-06-07T16:57:22.590Z,94984.05
2019-06-07T16:59:53.048Z,94982.53
2019-06-07T17:02:23.805Z,94987.48
2019-06-07T17:04:54.073Z,94995.20
2019-06-07T17:07:24.403Z,94991.13
2019-06-07T17:09:55.186Z,94988.34
2019-06-07T17:12:25.452Z,94992.72
2019-06-07T17:14:55.794Z,94982.73
2019-06-07T17:17:26.604Z,94989.51
2019-06-07T17:19:58.215Z,94990.56
2019-06-07T17:22:28.512Z,94991.92
2019-06-07T17:24:58.916Z,94990.55
2019-06-07T17:27:29.582Z,94995.38
2019-06-07T17:30:00.012Z,94994.22
2019-06-07T17:32:30.325Z,94993.27
2019-06-07T17:35:00.626Z,95007.99
2019-06-07T17:37:31.340Z,95005.45
2019-06-07T17:40:01.822Z,95003.91
2019-06-07T17:42:32.135Z,95005.99
2019-06-07T17:45:04.177Z,95000.45
2019-06-07T17:47:34.757Z,94999.70
2019-06-07T17:50:05.962Z,95003.73
2019-06-07T17:52:36.476Z,95001.73
2019-06-07T17:55:07.213Z,95005.86
2019-06-07T17:57:37.512Z,95006.71
2019-06-07T18:00:27.804Z,95002.27
2019-06-07T18:02:42.385Z,95017.09
2019-06-07T18:05:13.701Z,95013.17
2019-06-07T18:07:47.741Z,95024.77
2019-06-07T18:10:34.449Z,95022.45
2019-06-07T18:13:05.417Z,95023.92
2019-06-07T18:15:41.082Z,95022.39
2019-06-07T18:18:12.062Z,95017.52
2019-06-07T18:23:12.021Z,95023.44
2019-06-07T18:25:42.334Z,95031.45
2019-06-07T18:28:14.035Z,94811.00
2019-06-07T18:30:44.711Z,95035.27
2019-06-07T18:33:15.275Z,95031.32
2019-06-07T18:35:46.970Z,95034.75
2019-06-07T18:38:17.521Z,95033.97
2019-06-07T18:40:49.009Z,95041.17
2019-06-07T18:43:19.901Z,95041.51
2019-06-07T18:45:51.395Z,95050.25
2019-06-07T18:48:21.920Z,95052.76
2019-06-07T18:50:52.664Z,95055.52
2019-06-07T18:53:23.028Z,95060.78
2019-06-07T18:55:54.025Z,95063.84
2019-06-07T18:58:25.030Z,95065.92
2019-06-07T19:00:55.692Z,95072.30
2019-06-07T19:03:25.965Z,95074.00
2019-06-07T19:05:56.602Z,95082.25
2019-06-07T19:08:26.892Z,95083.12
2019-06-07T19:10:57.509Z,95093.88
2019-06-07T19:13:28.022Z,95099.42
2019-06-07T19:15:59.632Z,95094.59
2019-06-07T19:18:30.093Z,95100.49
2019-06-07T19:21:00.701Z,95106.17
2019-06-07T19:23:31.083Z,95101.56
2019-06-07T19:26:01.705Z,95104.59
2019-06-07T19:28:32.410Z,95108.03
2019-06-07T19:31:02.691Z,95115.97
2019-06-07T19:33:46.245Z,95115.09
2019-06-07T19:36:05.711Z,95119.71
2019-06-07T19:38:36.017Z,95123.20
2019-06-07T19:41:17.992Z,95115.95
2019-06-07T19:43:38.679Z,95115.56
2019-06-07T19:46:09.086Z,95118.61
2019-06-07T19:48:39.467Z,95122.27
2019-06-07T19:51:09.836Z,95125.83
2019-06-07T19:53:40.452Z,95129.53
2019-06-07T19:56:11.115Z,95125.45
2019-06-07T19:58:41.430Z,95121.51
2019-06-07T20:01:11.886Z,95122.50
2019-06-07T20:03:42.462Z,95126.00
2019-06-07T20:06:12.727Z,95116.89
2019-06-07T20:08:43.048Z,95124.98
2019-06-07T20:11:13.632Z,95126.22
2019-06-07T20:13:44.046Z,95125.08
2019-06-07T20:16:14.777Z,95129.34
2019-06-07T20:18:45.047Z,95124.20
2019-06-07T20:21:15.357Z,95127.76
2019-06-07T20:23:46.027Z,95130.75
2019-06-07T20:26:16.418Z,95128.88
2019-06-07T20:28:46.772Z,95130.20
2019-06-07T20:31:17.543Z,95131.00
2019-06-07T20:33:47.886Z,95129.50
2019-06-07T20:36:18.225Z,95133.14
2019-06-07T20:38:48.892Z,95136.13
2019-06-07T20:41:19.620Z,95143.28
2019-06-07T20:43:49.969Z,95140.28
2019-06-07T20:46:20.242Z,95145.33
2019-06-07T20:48:50.544Z,95143.28
2019-06-07T20:51:21.219Z,95142.03
2019-06-07T20:53:51.881Z,95142.02
2019-06-07T20:56:24.564Z,95143.41
2019-06-07T20:58:54.622Z,95146.78
2019-06-07T21:01:26.329Z,95145.41
2019-06-07T21:03:56.635Z,95148.45
2019-06-07T21:06:27.313Z,95155.16
2019-06-07T21:08:59.254Z,95153.03
2019-06-07T21:11:29.648Z,95158.00
2019-06-07T21:14:00.055Z,95160.44
2019-06-07T21:16:30.408Z,95156.42
2019-06-07T21:19:00.756Z,95154.05
2019-06-07T21:21:31.032Z,95156.68
2019-06-07T21:24:02.545Z,95155.83
2019-06-07T21:26:32.896Z,95159.65
2019-06-07T21:29:03.491Z,95158.88
2019-06-07T21:31:34.031Z,95159.65
2019-06-07T21:34:07.658Z,95159.13
2019-06-07T21:36:36.747Z,95166.56
2019-06-07T21:39:08.428Z,95164.27
2019-06-07T21:41:38.812Z,95165.28
2019-06-07T21:44:10.359Z,95164.64
2019-06-07T21:46:41.843Z,95161.09
2019-06-07T21:49:12.848Z,95156.34
2019-06-07T21:51:43.681Z,95164.94
2019-06-07T21:54:14.887Z,95158.20
2019-06-07T21:56:45.370Z,95156.74
2019-06-07T21:59:16.083Z,95158.58
2019-06-07T22:01:46.840Z,95162.04
2019-06-07T22:04:17.107Z,95163.83
2019-06-07T22:06:47.842Z,95165.33
2019-06-07T22:09:18.491Z,95165.62
2019-06-07T22:11:48.779Z,95174.13
2019-06-07T22:14:19.164Z,95160.44
2019-06-07T22:16:49.774Z,95156.94
2019-06-07T22:19:20.081Z,95155.04
2019-06-07T22:22:02.151Z,95156.45
2019-06-07T22:24:22.816Z,95156.27
2019-06-07T22:26:53.495Z,95156.89
2019-06-07T22:29:24.214Z,95155.67
2019-06-07T22:31:54.483Z,95153.11
2019-06-07T22:34:24.957Z,95158.98
2019-06-07T22:36:55.682Z,95158.32
2019-06-07T22:39:25.996Z,95167.66
2019-06-07T22:41:56.317Z,95168.06
2019-06-07T22:44:26.772Z,95165.57
2019-06-07T22:46:57.068Z,95170.70
2019-06-07T22:49:27.381Z,95169.81
2019-06-07T22:52:08.312Z,95175.44
2019-06-07T22:54:30.229Z,95172.38
2019-06-07T22:57:05.726Z,95166.30
2019-06-07T22:59:36.047Z,95165.48
2019-06-07T23:02:06.340Z,95159.75
2019-06-07T23:04:37.088Z,95155.98
2019-06-07T23:07:08.734Z,95161.84
2019-06-07T23:09:39.159Z,95158.45
2019-06-07T23:12:11.040Z,95153.26
2019-06-07T23:14:41.431Z,95153.78
2019-06-07T23:17:11.769Z,95157.61
2019-06-07T23:19:42.391Z,95151.31
2019-06-07T23:22:13.798Z,95150.04
2019-06-07T23:24:44.196Z,95150.66
2019-06-07T23:27:14.525Z,95141.05
2019-06-07T23:29:44.803Z,95144.57
2019-06-07T23:32:16.712Z,95145.14
2019-06-07T23:34:47.231Z,95141.56
2019-06-07T23:37:17.523Z,95134.97
2019-06-07T23:39:48.276Z,95138.06
2019-06-07T23:42:19.743Z,95135.50
2019-06-07T23:44:50.092Z,95144.40
2019-06-07T23:47:22.344Z,95146.77
2019-06-07T23:49:53.142Z,95148.84
2019-06-07T23:52:23.433Z,95144.41
2019-06-07T23:54:53.881Z,95146.16
2019-06-07T23:57:24.175Z,95139.92
2019-06-07T23:59:55.849Z,95141.80
